Time;durP1;ratioP1;P1;durP2;ratioP2;P2;SDS_P1;SDS_P2;PMS_P1;PMS_P2;Temp;Humidity;BMP_temperature;BMP_pressure;BME280_temperature;BME280_humidity;BME280_pressure;Samples;Min_cycle;Max_cycle;Signal;HPM_P1;HPM_P2
2020/12/07 00:00:45;;;;;;;35.70;15.88;;;0.70;99.90;;;;;;4987282;28;20157;-72
2020/12/07 00:03:12;;;;;;;27.40;15.60;;;0.70;99.90;;;;;;4989499;28;20047;-74
2020/12/07 00:05:38;;;;;;;32.75;18.02;;;0.70;99.90;;;;;;4989795;28;20101;-78
2020/12/07 00:08:05;;;;;;;34.17;17.77;;;0.70;99.90;;;;;;4989643;28;20060;-77
2020/12/07 00:10:31;;;;;;;31.17;17.65;;;0.70;99.90;;;;;;4988756;28;20125;-71
2020/12/07 00:12:58;;;;;;;32.88;17.88;;;0.70;99.90;;;;;;4989000;28;20042;-72
2020/12/07 00:15:25;;;;;;;34.55;18.92;;;0.70;99.90;;;;;;4987339;28;20081;-71
2020/12/07 00:17:53;;;;;;;36.17;18.50;;;0.70;99.90;;;;;;4988700;28;20384;-71
2020/12/07 00:20:19;;;;;;;31.10;18.17;;;0.70;99.90;;;;;;4987640;28;20055;-71
2020/12/07 00:22:45;;;;;;;38.13;19.58;;;0.70;99.90;;;;;;4989028;28;20494;-73
2020/12/07 00:25:12;;;;;;;29.88;18.05;;;0.70;99.90;;;;;;4988853;28;20161;-72
2020/12/07 00:27:38;;;;;;;26.52;16.75;;;0.70;99.90;;;;;;4989014;28;20165;-78
2020/12/07 00:30:06;;;;;;;32.53;18.77;;;0.70;99.90;;;;;;4988964;28;20073;-73
2020/12/07 00:32:33;;;;;;;32.75;18.17;;;0.70;99.90;;;;;;4985036;28;20051;-72
2020/12/07 00:35:01;;;;;;;30.38;18.05;;;0.70;99.90;;;;;;4975974;28;20058;-72
2020/12/07 00:37:28;;;;;;;33.53;17.50;;;0.80;99.90;;;;;;4990284;28;20065;-72
2020/12/07 00:39:54;;;;;;;29.95;18.02;;;0.70;99.90;;;;;;4992179;28;20100;-72
2020/12/07 00:42:20;;;;;;;30.25;17.58;;;0.80;99.90;;;;;;4992980;28;20050;-72
2020/12/07 00:44:47;;;;;;;33.13;19.60;;;0.80;99.90;;;;;;4992968;28;20074;-74
2020/12/07 00:47:13;;;;;;;34.95;20.17;;;0.80;99.90;;;;;;4992084;28;20136;-72
2020/12/07 00:49:40;;;;;;;34.80;20.45;;;0.80;99.90;;;;;;4993107;28;20054;-78
2020/12/07 00:52:08;;;;;;;33.97;20.05;;;0.80;99.90;;;;;;4984148;28;20085;-73
2020/12/07 00:54:35;;;;;;;35.90;20.90;;;0.80;99.90;;;;;;4993045;28;20124;-72
2020/12/07 00:57:04;;;;;;;35.72;20.67;;;0.80;99.90;;;;;;4992354;28;20136;-77
2020/12/07 00:59:32;;;;;;;34.92;21.67;;;0.80;99.90;;;;;;4992964;28;20058;-72
2020/12/07 01:01:59;;;;;;;34.08;20.15;;;0.80;99.90;;;;;;4991036;28;20137;-73
2020/12/07 01:04:26;;;;;;;34.25;20.83;;;0.80;99.90;;;;;;4992789;28;20042;-73
2020/12/07 01:06:52;;;;;;;35.67;20.77;;;0.80;99.90;;;;;;4992405;28;20054;-72
2020/12/07 01:09:21;;;;;;;35.22;20.23;;;0.80;99.90;;;;;;4991597;28;20126;-71
2020/12/07 01:11:54;;;;;;;32.17;19.52;;;0.80;99.90;;;;;;4984454;28;20381;-72
2020/12/07 01:14:21;;;;;;;32.97;20.05;;;0.80;99.90;;;;;;4992265;28;20120;-72
2020/12/07 01:16:49;;;;;;;35.33;20.98;;;0.80;99.90;;;;;;4990715;28;20141;-73
2020/12/07 01:19:16;;;;;;;33.55;20.23;;;0.80;99.90;;;;;;4992189;28;20050;-72
2020/12/07 01:21:42;;;;;;;33.22;19.85;;;0.80;99.90;;;;;;5008840;28;20085;-72
2020/12/07 01:24:08;;;;;;;33.28;20.08;;;0.80;99.90;;;;;;4994395;28;20116;-72
2020/12/07 01:26:35;;;;;;;35.30;20.55;;;0.80;99.90;;;;;;5011963;28;20049;-74
2020/12/07 01:29:03;;;;;;;34.65;20.05;;;0.80;99.90;;;;;;5011144;28;20148;-72
2020/12/07 01:31:30;;;;;;;35.75;22.27;;;0.80;99.90;;;;;;5009881;28;20050;-73
2020/12/07 01:33:57;;;;;;;33.42;20.67;;;0.80;99.90;;;;;;5011721;28;20220;-71
2020/12/07 01:36:23;;;;;;;36.53;21.88;;;0.80;99.90;;;;;;5011591;28;20077;-71
2020/12/07 01:38:50;;;;;;;34.53;19.15;;;0.90;99.90;;;;;;5011558;28;20137;-72
2020/12/07 01:41:16;;;;;;;31.27;19.70;;;0.80;99.90;;;;;;4999235;28;20068;-72
2020/12/07 01:43:44;;;;;;;31.55;20.13;;;0.90;99.90;;;;;;5010788;28;20137;-71
2020/12/07 01:46:22;;;;;;;35.13;20.50;;;0.90;99.90;;;;;;5007449;28;20058;-75
2020/12/07 01:48:50;;;;;;;32.45;19.30;;;0.90;99.90;;;;;;5008991;28;20139;-73
2020/12/07 01:51:17;;;;;;;31.02;18.92;;;0.90;99.90;;;;;;5009411;28;20105;-73
2020/12/07 01:53:44;;;;;;;30.48;18.88;;;0.90;99.90;;;;;;4986674;28;20097;-73
2020/12/07 01:56:28;;;;;;;31.15;18.65;;;0.90;99.90;;;;;;5004136;28;20056;-73
2020/12/07 01:58:57;;;;;;;27.80;17.45;;;0.90;99.90;;;;;;5010884;28;20536;-72
2020/12/07 02:01:24;;;;;;;30.60;17.20;;;0.90;99.90;;;;;;5009916;28;20050;-73
2020/12/07 02:03:50;;;;;;;25.70;17.13;;;0.90;99.90;;;;;;5010342;28;20497;-72
2020/12/07 02:06:22;;;;;;;26.17;16.38;;;0.90;99.90;;;;;;5010797;28;20453;-74
2020/12/07 02:08:50;;;;;;;27.70;17.63;;;0.90;99.90;;;;;;4993222;28;20108;-72
2020/12/07 02:11:17;;;;;;;26.55;16.05;;;0.90;99.90;;;;;;5010461;28;20119;-72
2020/12/07 02:13:44;;;;;;;27.75;16.92;;;0.90;99.90;;;;;;5010199;28;20143;-72
2020/12/07 02:16:11;;;;;;;24.40;16.35;;;0.90;99.90;;;;;;5010224;28;20057;-74
2020/12/07 02:18:37;;;;;;;25.17;16.40;;;0.90;99.90;;;;;;5010909;28;20140;-72
2020/12/07 02:21:05;;;;;;;26.38;16.38;;;0.90;99.90;;;;;;5010325;28;20446;-73
2020/12/07 02:23:31;;;;;;;25.00;16.02;;;0.90;99.90;;;;;;5010460;28;20053;-72
2020/12/07 02:25:58;;;;;;;26.50;15.93;;;0.90;99.90;;;;;;5009691;28;20488;-71
2020/12/07 02:28:24;;;;;;;22.65;14.48;;;0.90;99.90;;;;;;5009792;28;20131;-72
2020/12/07 02:30:51;;;;;;;27.08;16.27;;;1.00;99.90;;;;;;5009233;28;20069;-73
2020/12/07 02:33:17;;;;;;;27.15;16.67;;;1.00;99.90;;;;;;5010392;28;20041;-72
2020/12/07 02:35:43;;;;;;;26.95;16.25;;;1.00;99.90;;;;;;5010422;28;20078;-72
2020/12/07 02:38:09;;;;;;;24.85;15.48;;;1.00;99.90;;;;;;5010222;28;20195;-76
2020/12/07 02:40:37;;;;;;;25.52;14.88;;;1.00;99.90;;;;;;5009705;28;20058;-72
2020/12/07 02:43:05;;;;;;;22.60;14.80;;;1.00;99.90;;;;;;5009713;28;20128;-73
2020/12/07 02:45:31;;;;;;;22.63;15.05;;;1.00;99.90;;;;;;5009511;28;20065;-72
2020/12/07 02:47:58;;;;;;;23.45;15.77;;;1.00;99.90;;;;;;5009692;28;20053;-72
2020/12/07 02:50:24;;;;;;;23.25;15.10;;;1.10;99.90;;;;;;5009786;28;20530;-72
2020/12/07 02:52:51;;;;;;;23.45;15.52;;;1.10;99.90;;;;;;5009570;28;20045;-72
2020/12/07 02:55:17;;;;;;;22.70;14.32;;;1.10;99.90;;;;;;5009544;28;20096;-72
2020/12/07 02:57:43;;;;;;;23.35;15.00;;;1.10;99.90;;;;;;4992098;28;20767;-72
2020/12/07 03:00:10;;;;;;;23.27;14.57;;;1.10;99.90;;;;;;5006772;28;20437;-75
2020/12/07 03:02:36;;;;;;;19.20;13.70;;;1.10;99.90;;;;;;5009869;28;20086;-72
2020/12/07 03:05:04;;;;;;;20.10;13.50;;;1.10;99.90;;;;;;5010115;28;20046;-72
2020/12/07 03:07:31;;;;;;;19.42;14.00;;;1.10;99.90;;;;;;5009744;28;20062;-72
2020/12/07 03:09:57;;;;;;;19.65;13.52;;;1.10;99.90;;;;;;5008201;28;20500;-72
2020/12/07 03:12:24;;;;;;;18.92;13.23;;;1.20;99.90;;;;;;5009363;28;20049;-72
2020/12/07 03:14:50;;;;;;;19.67;13.75;;;1.10;99.90;;;;;;5009464;28;20452;-73
2020/12/07 03:17:16;;;;;;;21.52;13.80;;;1.10;99.90;;;;;;5009373;28;20116;-72
2020/12/07 03:19:43;;;;;;;18.23;13.18;;;1.20;99.90;;;;;;5007744;28;20085;-72
2020/12/07 03:22:09;;;;;;;17.02;12.77;;;1.10;99.90;;;;;;5009484;28;20125;-76
2020/12/07 03:24:36;;;;;;;21.33;13.23;;;1.20;99.90;;;;;;5009664;28;20160;-72
2020/12/07 03:27:02;;;;;;;19.98;13.32;;;1.10;99.90;;;;;;4991329;28;20074;-74
2020/12/07 03:29:29;;;;;;;18.73;12.15;;;1.20;99.90;;;;;;5006369;28;20107;-72
2020/12/07 03:31:55;;;;;;;18.63;12.82;;;1.20;99.90;;;;;;5008043;28;20057;-72
2020/12/07 03:34:22;;;;;;;17.00;11.95;;;1.20;99.90;;;;;;5008927;28;20172;-73
2020/12/07 03:36:48;;;;;;;16.63;11.77;;;1.20;99.90;;;;;;5009721;28;20073;-71
2020/12/07 03:39:15;;;;;;;18.50;11.43;;;1.20;99.90;;;;;;5008706;28;20438;-71
2020/12/07 03:41:41;;;;;;;16.10;12.20;;;1.10;99.90;;;;;;5008690;28;20126;-72
2020/12/07 03:44:07;;;;;;;16.25;11.25;;;1.20;99.90;;;;;;5009388;28;20125;-73
2020/12/07 03:46:34;;;;;;;15.60;11.55;;;1.20;99.90;;;;;;5007769;28;20136;-73
2020/12/07 03:49:01;;;;;;;16.20;11.35;;;1.20;99.90;;;;;;5009250;28;20124;-74
2020/12/07 03:51:27;;;;;;;15.75;10.95;;;1.20;99.90;;;;;;5008757;28;20053;-73
2020/12/07 03:53:54;;;;;;;14.27;10.90;;;1.20;99.90;;;;;;5009152;28;20108;-72
2020/12/07 03:56:21;;;;;;;15.98;11.05;;;1.20;99.90;;;;;;5009049;28;20148;-74
2020/12/07 03:58:47;;;;;;;15.70;11.25;;;1.20;99.90;;;;;;5008816;28;20125;-72
2020/12/07 04:01:13;;;;;;;14.48;10.05;;;1.20;99.90;;;;;;4990277;28;20127;-72
2020/12/07 04:03:42;;;;;;;16.88;11.07;;;1.20;99.90;;;;;;5008603;28;20192;-77
2020/12/07 04:06:13;;;;;;;15.95;10.80;;;1.20;99.90;;;;;;5009522;28;20046;-72
2020/12/07 04:08:40;;;;;;;17.45;12.30;;;1.20;99.90;;;;;;5008472;28;20077;-76
2020/12/07 04:11:06;;;;;;;14.82;10.77;;;1.20;99.90;;;;;;5008726;28;20501;-73
2020/12/07 04:13:33;;;;;;;16.02;11.48;;;1.20;99.90;;;;;;5008729;28;20460;-72
2020/12/07 04:16:01;;;;;;;14.95;9.90;;;1.20;99.90;;;;;;5007896;28;20583;-74
2020/12/07 04:18:28;;;;;;;15.18;11.43;;;1.20;99.90;;;;;;4991112;28;20081;-72
2020/12/07 04:20:59;;;;;;;15.00;10.80;;;1.20;99.90;;;;;;5008771;28;20108;-72
2020/12/07 04:23:30;;;;;;;19.05;11.77;;;1.20;99.90;;;;;;5009199;28;20094;-72
2020/12/07 04:25:58;;;;;;;15.93;11.37;;;1.20;99.90;;;;;;5008225;28;20451;-72
2020/12/07 04:28:25;;;;;;;15.05;11.10;;;1.20;99.90;;;;;;4990712;28;20054;-72
2020/12/07 04:30:52;;;;;;;15.70;10.85;;;1.20;99.90;;;;;;4989829;28;20124;-74
2020/12/07 04:33:19;;;;;;;15.23;10.88;;;1.20;99.90;;;;;;5008643;28;20077;-72
2020/12/07 04:35:45;;;;;;;16.13;11.30;;;1.20;99.90;;;;;;5008831;28;20107;-72
2020/12/07 04:38:12;;;;;;;17.45;11.60;;;1.20;99.90;;;;;;4991431;28;20054;-73
2020/12/07 04:40:39;;;;;;;17.13;11.73;;;1.20;99.90;;;;;;5000095;28;20108;-72
2020/12/07 04:43:06;;;;;;;17.27;11.65;;;1.20;99.90;;;;;;5008582;28;20076;-73
2020/12/07 04:45:32;;;;;;;17.65;12.63;;;1.20;99.90;;;;;;5008209;28;20050;-72
2020/12/07 04:48:00;;;;;;;18.17;11.70;;;1.20;99.90;;;;;;5008211;28;20060;-72
2020/12/07 04:50:30;;;;;;;19.02;12.77;;;1.10;99.90;;;;;;5008427;28;20092;-73
2020/12/07 04:52:58;;;;;;;19.08;12.55;;;1.10;99.90;;;;;;5008719;28;20050;-73
2020/12/07 04:55:25;;;;;;;20.02;11.85;;;1.20;99.90;;;;;;5008039;28;20424;-71
2020/12/07 04:57:54;;;;;;;21.55;14.38;;;1.10;99.90;;;;;;5005188;28;20571;-72
2020/12/07 05:00:23;;;;;;;21.77;13.73;;;1.10;99.90;;;;;;5006496;28;20124;-72
2020/12/07 05:02:52;;;;;;;24.88;14.48;;;1.20;99.90;;;;;;5008495;28;20133;-72
2020/12/07 05:05:19;;;;;;;22.63;14.40;;;1.20;99.90;;;;;;5008549;28;20080;-72
2020/12/07 05:07:50;;;;;;;21.77;14.18;;;1.20;99.90;;;;;;4991061;28;20082;-72
2020/12/07 05:15:46;;;;;;;22.85;14.52;;;1.20;99.90;;;;;;5007090;28;20041;-72
2020/12/07 05:18:12;;;;;;;26.33;16.70;;;1.20;99.90;;;;;;5011455;28;20056;-72
2020/12/07 05:20:38;;;;;;;27.45;16.77;;;1.20;99.90;;;;;;5011195;28;20085;-74
2020/12/07 05:23:05;;;;;;;31.52;17.58;;;1.20;99.90;;;;;;5012320;28;20073;-74
2020/12/07 05:25:31;;;;;;;27.55;17.17;;;1.20;99.90;;;;;;5011423;28;20046;-74
2020/12/07 05:27:59;;;;;;;28.08;16.85;;;1.20;99.90;;;;;;5010967;28;20430;-72
2020/12/07 05:30:35;;;;;;;29.05;17.08;;;1.20;99.90;;;;;;4996336;28;20093;-72
2020/12/07 05:33:03;;;;;;;31.50;17.85;;;1.20;99.90;;;;;;4997847;28;20485;-74
2020/12/07 05:35:30;;;;;;;24.95;17.00;;;1.20;99.90;;;;;;5011196;28;20139;-72
2020/12/07 05:38:03;;;;;;;28.88;17.17;;;1.20;99.90;;;;;;5010771;28;20046;-74
2020/12/07 05:40:30;;;;;;;31.90;18.52;;;1.20;99.90;;;;;;5010163;28;20455;-72
2020/12/07 05:42:58;;;;;;;34.10;18.38;;;1.20;99.90;;;;;;5010667;28;20049;-73
2020/12/07 05:45:25;;;;;;;29.58;17.60;;;1.30;99.90;;;;;;5010580;28;20088;-72
2020/12/07 05:47:53;;;;;;;29.42;18.15;;;1.20;99.90;;;;;;5004017;28;20047;-72
2020/12/07 05:50:21;;;;;;;31.48;17.15;;;1.20;99.90;;;;;;4986124;28;20066;-72
2020/12/07 05:52:48;;;;;;;31.60;19.08;;;1.20;99.90;;;;;;4994033;28;20082;-72
2020/12/07 05:55:17;;;;;;;34.83;19.70;;;1.20;99.90;;;;;;5007551;28;20157;-72
2020/12/07 05:58:03;;;;;;;31.70;18.25;;;1.20;99.90;;;;;;5010416;28;20129;-72
2020/12/07 06:00:36;;;;;;;36.22;19.90;;;1.20;99.90;;;;;;5009908;28;20054;-72
2020/12/07 06:03:05;;;;;;;32.20;18.55;;;1.20;99.90;;;;;;5010805;28;20416;-73
2020/12/07 06:05:32;;;;;;;33.10;18.17;;;1.20;99.90;;;;;;5008686;28;20080;-73
2020/12/07 06:08:25;;;;;;;31.35;18.10;;;1.20;99.90;;;;;;5009769;28;20386;-74
2020/12/07 06:11:03;;;;;;;;;;;1.20;99.90;;;;;;4987165;28;20149;-74
2020/12/07 06:13:31;;;;;;;31.13;18.35;;;1.20;99.90;;;;;;5010538;28;19977;-74
2020/12/07 06:16:03;;;;;;;32.88;19.20;;;1.10;99.90;;;;;;5009926;28;20096;-74
2020/12/07 06:18:32;;;;;;;34.83;20.33;;;1.10;99.90;;;;;;5010379;28;20116;-73
2020/12/07 06:21:03;;;;;;;34.75;20.08;;;1.10;99.90;;;;;;5010647;28;20054;-75
2020/12/07 06:23:36;;;;;;;33.00;20.58;;;1.10;99.90;;;;;;5010739;28;20366;-73
2020/12/07 06:26:05;;;;;;;36.35;21.17;;;1.10;99.90;;;;;;5010082;28;20445;-74
2020/12/07 06:28:36;;;;;;;37.65;20.50;;;1.00;99.90;;;;;;5008854;28;20264;-74
2020/12/07 06:31:06;;;;;;;35.72;20.90;;;1.00;99.90;;;;;;5009208;28;20149;-73
2020/12/07 06:33:52;;;;;;;41.17;22.88;;;1.00;99.90;;;;;;5010068;28;20129;-73
2020/12/07 06:36:28;;;;;;;43.35;23.95;;;0.90;99.90;;;;;;5009826;28;20042;-73
2020/12/07 06:39:03;;;;;;;38.13;23.10;;;0.90;99.90;;;;;;5010612;28;20046;-74
2020/12/07 06:41:43;;;;;;;45.95;23.25;;;0.90;99.90;;;;;;5009624;28;20512;-73
2020/12/07 06:44:14;;;;;;;41.67;22.92;;;0.90;99.90;;;;;;4992046;28;20084;-78
2020/12/07 06:47:09;;;;;;;42.37;23.77;;;0.80;99.90;;;;;;5008940;28;20050;-73
2020/12/07 06:52:11;;;;;;;40.53;23.45;;;0.90;99.90;;;;;;5010335;28;20145;-74
2020/12/07 06:57:37;;;;;;;40.28;22.90;;;0.90;99.90;;;;;;4999242;28;20420;-73
2020/12/07 07:00:18;;;;;;;42.65;23.33;;;0.80;99.90;;;;;;4992455;28;20464;-75
2020/12/07 07:02:53;;;;;;;37.67;22.13;;;0.70;99.90;;;;;;4991515;28;20112;-74
2020/12/07 07:05:21;;;;;;;40.65;23.17;;;0.80;99.90;;;;;;5010125;28;20049;-73
2020/12/07 07:07:48;;;;;;;42.20;23.70;;;0.90;99.90;;;;;;5009724;28;20085;-73
2020/12/07 07:10:15;;;;;;;40.88;23.33;;;0.90;99.90;;;;;;5008974;28;20085;-75
2020/12/07 07:12:43;;;;;;;41.08;22.73;;;0.90;99.90;;;;;;5009573;28;20042;-73
2020/12/07 07:15:10;;;;;;;48.42;25.95;;;0.90;99.90;;;;;;5008650;28;20599;-78
2020/12/07 07:17:39;;;;;;;44.10;24.30;;;1.00;99.90;;;;;;5009357;28;20054;-73
2020/12/07 07:20:07;;;;;;;45.13;23.63;;;1.00;99.90;;;;;;5009521;28;20487;-74
2020/12/07 07:22:36;;;;;;;37.67;21.48;;;1.00;99.90;;;;;;5009389;28;20092;-73
2020/12/07 07:30:16;;;;;;;38.45;22.90;;;1.10;99.90;;;;;;4991110;28;20132;-73
2020/12/07 07:32:45;;;;;;;39.08;22.83;;;1.10;99.90;;;;;;4991723;28;20050;-73
2020/12/07 07:35:13;;;;;;;31.38;18.98;;;1.10;99.90;;;;;;5004435;28;20122;-73
2020/12/07 07:37:40;;;;;;;34.58;19.27;;;1.10;99.90;;;;;;5009423;28;20137;-73
2020/12/07 07:40:18;;;;;;;33.78;19.50;;;1.10;99.90;;;;;;5008878;28;20472;-74
2020/12/07 07:42:58;;;;;;;34.53;20.10;;;1.10;99.90;;;;;;5009065;28;20488;-72
2020/12/07 07:45:30;;;;;;;33.85;20.65;;;1.10;99.90;;;;;;5008637;28;20049;-73
2020/12/07 07:48:10;;;;;;;33.20;19.97;;;1.10;99.90;;;;;;4990695;28;20227;-72
2020/12/07 08:15:57;;;;;;;21.55;14.57;;;1.70;99.90;;;;;;5008098;28;20910;-74
2020/12/07 08:18:36;;;;;;;20.33;13.82;;;1.80;99.90;;;;;;4991500;28;20058;-73
2020/12/07 08:21:04;;;;;;;16.95;11.55;;;1.90;99.90;;;;;;5007037;28;20054;-74
2020/12/07 08:23:33;;;;;;;16.75;11.55;;;1.90;99.90;;;;;;4990350;28;20054;-72
2020/12/07 08:26:01;;;;;;;15.90;10.57;;;2.20;99.90;;;;;;4990768;28;20507;-74
2020/12/07 08:28:32;;;;;;;16.55;10.48;;;2.30;99.90;;;;;;4990767;28;20061;-73
2020/12/07 08:31:10;;;;;;;13.30;9.90;;;2.40;99.90;;;;;;4990157;28;20556;-74
2020/12/07 08:33:38;;;;;;;12.68;9.23;;;2.50;99.90;;;;;;5007079;28;20046;-72
2020/12/07 08:36:07;;;;;;;12.45;9.00;;;2.60;99.90;;;;;;5009043;28;20042;-73
2020/12/07 08:38:36;;;;;;;10.13;8.20;;;2.70;99.90;;;;;;4988292;28;20084;-73
2020/12/07 08:41:13;;;;;;;10.50;7.20;;;3.10;99.90;;;;;;5002237;28;20049;-73
2020/12/07 08:43:42;;;;;;;11.77;7.28;;;3.40;99.90;;;;;;4998727;28;20069;-75
2020/12/07 08:46:10;;;;;;;8.95;6.65;;;3.40;99.90;;;;;;4988436;28;20077;-75
2020/12/07 08:48:38;;;;;;;11.27;7.45;;;3.40;99.90;;;;;;4990039;28;20489;-73
2020/12/07 08:51:05;;;;;;;8.88;7.15;;;3.30;99.90;;;;;;5007773;28;20049;-72
2020/12/07 08:53:32;;;;;;;7.78;6.95;;;3.40;99.90;;;;;;5011018;28;20053;-72
2020/12/07 08:55:59;;;;;;;9.82;7.43;;;3.30;99.90;;;;;;5011225;28;20562;-74
2020/12/07 08:58:26;;;;;;;9.48;7.38;;;3.40;99.90;;;;;;4993749;28;20053;-73
2020/12/07 09:00:53;;;;;;;8.50;6.75;;;3.40;99.90;;;;;;4993755;28;20476;-72
2020/12/07 09:03:20;;;;;;;8.77;7.05;;;3.40;99.90;;;;;;4990651;28;20038;-72
2020/12/07 09:05:47;;;;;;;10.20;7.90;;;3.40;99.90;;;;;;5009147;28;20464;-72
2020/12/07 09:08:14;;;;;;;11.07;8.13;;;3.30;99.90;;;;;;5012673;28;20041;-74
2020/12/07 09:10:40;;;;;;;11.52;7.38;;;3.30;99.90;;;;;;4991355;28;20137;-76
2020/12/07 09:13:07;;;;;;;8.23;6.78;;;3.30;99.90;;;;;;5009321;28;20561;-71
2020/12/07 09:15:33;;;;;;;8.77;7.00;;;3.40;99.90;;;;;;5011451;28;20050;-72
2020/12/07 09:18:00;;;;;;;8.32;7.03;;;3.50;99.90;;;;;;5011651;28;20398;-72
2020/12/07 09:20:26;;;;;;;9.65;7.80;;;3.70;99.90;;;;;;4990450;28;20374;-72
2020/12/07 09:22:53;;;;;;;10.15;7.28;;;3.70;99.90;;;;;;5010647;28;20057;-72
2020/12/07 09:25:20;;;;;;;7.22;5.78;;;4.00;99.90;;;;;;5011731;28;20050;-72
2020/12/07 09:27:46;;;;;;;7.45;4.97;;;4.80;99.90;;;;;;5011114;28;20149;-72
2020/12/07 09:30:13;;;;;;;6.55;4.82;;;5.60;99.90;;;;;;5010240;28;20054;-74
2020/12/07 09:32:40;;;;;;;5.32;4.40;;;6.00;99.90;;;;;;5010317;28;20061;-73
2020/12/07 09:35:08;;;;;;;7.43;4.10;;;6.30;99.90;;;;;;4991987;28;20042;-73
2020/12/07 09:37:36;;;;;;;4.45;3.80;;;6.40;99.90;;;;;;5010146;28;20049;-73
2020/12/07 09:40:05;;;;;;;6.22;4.30;;;6.60;99.90;;;;;;5009626;28;20449;-74
2020/12/07 09:42:32;;;;;;;6.28;4.93;;;6.50;99.90;;;;;;4993370;28;20058;-73
2020/12/07 09:44:59;;;;;;;5.15;4.63;;;6.00;99.90;;;;;;5011077;28;20504;-73
2020/12/07 09:47:27;;;;;;;5.30;4.80;;;5.80;99.90;;;;;;5009090;28;20128;-73
2020/12/07 09:49:54;;;;;;;6.20;4.75;;;6.50;99.90;;;;;;5011132;28;20143;-73
2020/12/07 09:52:21;;;;;;;5.53;4.50;;;7.00;99.90;;;;;;5003676;28;20065;-73
2020/12/07 09:54:48;;;;;;;5.88;4.82;;;7.00;99.90;;;;;;5009164;28;20133;-74
2020/12/07 09:57:15;;;;;;;6.20;4.50;;;7.20;99.90;;;;;;5010809;28;20116;-74
2020/12/07 09:59:42;;;;;;;6.80;5.13;;;7.00;99.90;;;;;;5010024;28;20069;-74
2020/12/07 10:02:09;;;;;;;5.03;4.53;;;6.70;99.90;;;;;;5009056;28;20045;-74
2020/12/07 10:04:37;;;;;;;5.85;4.78;;;6.50;99.90;;;;;;5011714;28;20052;-73
2020/12/07 10:07:04;;;;;;;5.78;5.07;;;6.30;99.90;;;;;;5009862;28;20069;-73
2020/12/07 10:09:30;;;;;;;8.05;5.40;;;5.90;99.90;;;;;;5010487;28;20054;-73
2020/12/07 10:11:57;;;;;;;7.25;5.55;;;5.80;99.90;;;;;;5010566;28;20046;-73
2020/12/07 10:14:24;;;;;;;6.07;5.47;;;5.80;99.90;;;;;;5010839;28;20057;-74
2020/12/07 10:16:50;;;;;;;7.57;5.57;;;5.90;99.90;;;;;;5010091;28;20439;-73
2020/12/07 10:19:17;;;;;;;5.45;4.80;;;5.70;99.90;;;;;;4990565;28;20128;-73
2020/12/07 10:21:44;;;;;;;5.50;4.90;;;5.40;99.90;;;;;;5010581;28;20116;-74
2020/12/07 10:24:10;;;;;;;7.28;5.63;;;5.30;99.90;;;;;;5010195;28;20489;-73
2020/12/07 10:26:40;;;;;;;6.82;5.80;;;5.10;99.90;;;;;;4993689;28;20160;-73
2020/12/07 10:29:07;;;;;;;8.85;6.80;;;4.70;99.90;;;;;;4993735;28;20045;-73
2020/12/07 10:31:43;;;;;;;9.30;6.35;;;4.30;99.90;;;;;;5009625;28;20065;-74
2020/12/07 10:34:09;;;;;;;8.00;6.53;;;4.10;99.90;;;;;;4993041;28;20121;-73
2020/12/07 10:36:38;;;;;;;6.90;6.18;;;3.80;99.90;;;;;;4991756;28;20057;-73
2020/12/07 10:39:07;;;;;;;8.05;6.65;;;3.60;99.90;;;;;;5009933;28;20580;-75
2020/12/07 10:41:34;;;;;;;11.40;7.35;;;3.40;99.90;;;;;;4992101;28;20124;-73
2020/12/07 10:44:00;;;;;;;8.93;7.88;;;3.30;99.90;;;;;;5007791;28;20148;-73
2020/12/07 10:46:27;;;;;;;8.30;7.20;;;3.20;99.90;;;;;;5008956;28;20050;-76
2020/12/07 10:48:54;;;;;;;8.82;6.90;;;3.10;99.90;;;;;;5009810;28;20046;-74
2020/12/07 10:51:20;;;;;;;9.27;7.80;;;2.90;99.90;;;;;;5009603;28;20088;-73
2020/12/07 10:53:47;;;;;;;8.73;7.65;;;2.90;99.90;;;;;;5009381;28;20046;-74
2020/12/07 10:56:15;;;;;;;13.63;9.02;;;2.90;99.90;;;;;;5009052;28;20046;-73
2020/12/07 10:58:42;;;;;;;9.20;7.75;;;3.00;99.90;;;;;;5009548;28;20053;-73
2020/12/07 11:01:10;;;;;;;11.00;8.13;;;3.00;99.90;;;;;;4991068;28;20077;-72
2020/12/07 11:03:37;;;;;;;12.13;8.48;;;2.90;99.90;;;;;;5009256;28;20485;-73
2020/12/07 11:09:09;;;;;;;12.50;9.38;;;2.90;99.90;;;;;;4924425;29;20415;-74
2020/12/07 11:11:35;;;;;;;10.63;8.65;;;3.00;99.90;;;;;;4927037;29;20142;-72
2020/12/07 11:14:04;;;;;;;9.60;7.63;;;3.00;99.90;;;;;;4928693;29;20458;-74
2020/12/07 11:16:31;;;;;;;10.38;7.55;;;3.10;99.90;;;;;;4922496;29;20050;-74
2020/12/07 11:18:58;;;;;;;10.60;8.30;;;3.20;99.90;;;;;;4926093;29;20056;-74
2020/12/07 11:21:24;;;;;;;9.05;7.00;;;3.30;99.90;;;;;;4929262;29;20522;-73
2020/12/07 11:23:51;;;;;;;9.20;7.57;;;3.20;99.90;;;;;;4928293;29;20203;-72
2020/12/07 11:26:18;;;;;;;12.68;8.27;;;3.10;99.90;;;;;;4929118;29;20107;-72
2020/12/07 11:28:48;;;;;;;10.40;8.02;;;3.10;99.90;;;;;;4928765;29;20044;-73
2020/12/07 11:31:16;;;;;;;12.00;9.20;;;3.20;99.90;;;;;;4913144;29;20153;-72
2020/12/07 11:33:45;;;;;;;11.40;7.72;;;3.20;99.90;;;;;;4928861;29;20054;-72
2020/12/07 11:36:15;;;;;;;7.90;6.97;;;3.10;99.90;;;;;;4914049;29;20043;-72
2020/12/07 11:38:55;;;;;;;7.50;6.13;;;3.00;99.90;;;;;;4913999;29;20059;-73
2020/12/07 11:46:43;;;;;;;8.50;7.28;;;2.90;99.90;;;;;;5005922;28;20115;-72
2020/12/07 11:49:09;;;;;;;8.50;7.00;;;2.90;99.90;;;;;;5009150;28;20046;-72
2020/12/07 11:51:38;;;;;;;8.82;6.05;;;2.90;99.90;;;;;;4991715;28;20133;-71
2020/12/07 11:54:05;;;;;;;8.38;6.63;;;2.80;99.90;;;;;;5008341;28;20042;-74
2020/12/07 11:56:33;;;;;;;7.32;6.63;;;2.80;99.90;;;;;;4999339;28;20041;-72
2020/12/07 11:59:00;;;;;;;8.93;6.82;;;2.90;99.90;;;;;;5008411;28;20053;-75
2020/12/07 12:01:31;;;;;;;9.55;7.30;;;2.80;99.90;;;;;;4984766;28;20061;-73
2020/12/07 12:03:58;;;;;;;8.45;7.53;;;2.80;99.90;;;;;;5007385;28;20117;-73
2020/12/07 12:06:26;;;;;;;8.25;6.90;;;2.80;99.90;;;;;;5008528;28;20049;-72
2020/12/07 12:08:56;;;;;;;10.35;7.90;;;2.80;99.90;;;;;;4986501;28;20050;-73
2020/12/07 12:11:28;;;;;;;9.73;7.28;;;2.80;99.90;;;;;;5008747;28;20050;-71
2020/12/07 12:13:54;;;;;;;8.27;6.97;;;2.90;99.90;;;;;;5000459;28;20081;-72
2020/12/07 12:16:23;;;;;;;9.23;6.97;;;2.90;99.90;;;;;;5006390;28;20065;-73
2020/12/07 12:19:02;;;;;;;9.80;7.30;;;2.90;99.90;;;;;;5003272;28;20046;-74
2020/12/07 12:21:30;;;;;;;10.68;7.13;;;2.90;99.90;;;;;;4987737;28;20133;-73
2020/12/07 12:24:01;;;;;;;10.07;7.55;;;2.90;99.90;;;;;;5008664;28;20054;-73
2020/12/07 12:26:28;;;;;;;10.80;7.57;;;3.00;99.90;;;;;;5008695;28;20055;-73
2020/12/07 12:28:54;;;;;;;8.68;7.32;;;3.00;99.90;;;;;;4994657;28;20042;-73
2020/12/07 12:31:21;;;;;;;8.40;7.53;;;3.00;99.90;;;;;;5008430;28;20255;-73
2020/12/07 12:33:48;;;;;;;8.88;7.30;;;3.00;99.90;;;;;;5010045;28;20069;-74
2020/12/07 12:36:19;;;;;;;9.05;7.20;;;2.90;99.90;;;;;;4994487;28;20077;-74
2020/12/07 12:38:46;;;;;;;9.40;8.02;;;2.90;99.90;;;;;;4994775;28;20046;-72
2020/12/07 12:41:14;;;;;;;12.85;8.93;;;2.80;99.90;;;;;;4996230;28;20074;-73
2020/12/07 12:43:41;;;;;;;9.13;7.50;;;2.80;99.90;;;;;;4991359;28;20050;-73
2020/12/07 12:46:08;;;;;;;9.90;7.57;;;2.90;99.90;;;;;;4991183;28;20042;-73
2020/12/07 12:48:35;;;;;;;9.35;8.00;;;2.80;99.90;;;;;;5001180;28;20065;-73
2020/12/07 12:51:03;;;;;;;10.50;8.30;;;2.90;99.90;;;;;;4991479;28;20053;-72
2020/12/07 12:53:30;;;;;;;11.38;8.57;;;2.80;99.90;;;;;;5010516;28;20046;-71
2020/12/07 12:55:57;;;;;;;9.07;8.07;;;2.70;99.90;;;;;;4996169;28;20061;-71
2020/12/07 12:58:24;;;;;;;8.65;7.38;;;2.70;99.90;;;;;;5011616;28;20045;-72
2020/12/07 13:00:51;;;;;;;9.10;8.00;;;2.70;99.90;;;;;;5009846;28;20489;-72
2020/12/07 13:03:18;;;;;;;11.45;8.00;;;2.70;99.90;;;;;;5004857;28;20081;-72
2020/12/07 13:05:44;;;;;;;9.27;7.65;;;2.70;99.90;;;;;;4993774;28;20096;-72
2020/12/07 13:08:11;;;;;;;10.73;8.38;;;2.70;99.90;;;;;;4991989;28;20050;-72
2020/12/07 13:10:38;;;;;;;11.43;8.25;;;2.70;99.90;;;;;;5009888;28;20048;-72
2020/12/07 13:13:05;;;;;;;8.02;7.18;;;2.70;99.90;;;;;;4996179;28;20069;-74
2020/12/07 13:15:34;;;;;;;8.93;6.85;;;2.70;99.90;;;;;;4993374;28;20054;-73
2020/12/07 13:18:06;;;;;;;9.00;7.28;;;2.70;99.90;;;;;;4991931;28;20058;-74
2020/12/07 13:20:37;;;;;;;12.02;7.93;;;2.80;99.90;;;;;;5011371;28;20058;-72
2020/12/07 13:27:11;;;;;;;15.90;7.20;;;2.80;99.90;;;;;;4928841;29;20131;-72
2020/12/07 13:29:04;;;;;;;10.27;8.20;;;2.70;99.90;;;;;;4922422;29;20068;-73
2020/12/07 13:31:41;;;;;;;12.68;7.72;;;2.70;99.90;;;;;;4983923;28;20056;-73
2020/12/07 13:34:07;;;;;;;10.48;7.95;;;2.70;99.90;;;;;;4993579;28;20104;-73
2020/12/07 13:36:34;;;;;;;8.25;7.32;;;2.70;99.90;;;;;;5009565;28;20042;-72
2020/12/07 13:39:00;;;;;;;8.40;7.05;;;2.70;99.90;;;;;;5010902;28;20050;-72
2020/12/07 13:41:27;;;;;;;13.93;6.97;;;2.80;99.90;;;;;;5010641;28;20423;-72